Chama, CO (81126)

1:10 PM MST on December 08, 2016 (GMT -0700)
Amalia | | Change Station

Elev 8081 ft 36.95 °N, 105.47 °W | Updated 17 seconds ago

Clear
Clear
33.8 °F
Feels Like 22 °F
N
20.0
Wind Variable Wind from WSW

Today
High -- | Low -- °F
--% Chance of Precip.
Yesterday
High -- | Low -- °F
Precip. -- in
Pressure 30.48 in
Visibility 10.0 miles
Clouds Clear
Windchill 22 °F
Dew Point 16 °F
Humidity 49%
Rainfall 0.00 in
Snow Depth Not available.
7:03 AM 4:44 PM
Waxing Gibbous, 66% visible
METAR KALS 081952Z AUTO VRB04KT 10SM CLR M05/M14 A3024 RMK AO2 SLP322 T10501144
Pressure 30.48 in
Visibility 10.0 miles
Clouds Clear
Windchill 22 °F
Dew Point 16 °F
Humidity 49%
Rainfall 0.00 in
Snow Depth Not available.
7:03 AM 4:44 PM
Waxing Gibbous, 66% visible
METAR KALS 081952Z AUTO VRB04KT 10SM CLR M05/M14 A3024 RMK AO2 SLP322 T10501144

10-Day Weather Forecast

Almanac

Astronomy

Dec. 08, 2016 Rise Set
Actual Time
Civil Twilight
Nautical Twilight
Astronomical Twilight
Moon
Length of Visible Light
Length of Day
Tomorrow will be .
, % of the Moon is Illuminated

Today's Extremes

State Highs State Lows

Community

WunderPhotos

Upload Photos

1,956,277 photos uploaded!

WunderBlog® & News

Nearby

Air Quality

  Air Quality AQ Index Pollutant
Not available.

Snow Depth

Station Depth Elevation

Earthquake Activity

City Distance Mag. Time & Date
Minimum magnitude displayed is 2.5.

Coastal Water Temperatures

Place Temperature

Stations

Nearby Weather Stations

Station Location Temp. Windchill Dew Point Humidity Wind Precip. Elev Updated Type
                   

Watches & Warnings

There are currently no watches in effect.